sensor_id;sensor_type;location;lat;lon;timestamp;pressure;altitude;pressure_sealevel;temperature;humidity
18167;BME280;9208;42.688;23.404;2023-05-09T00:00:32;95760.78;;;15.47;100.00
18167;BME280;9208;42.688;23.404;2023-05-09T00:02:58;95764.81;;;15.46;100.00
18167;BME280;9208;42.688;23.404;2023-05-09T00:05:24;95764.28;;;15.42;100.00
18167;BME280;9208;42.688;23.404;2023-05-09T00:07:49;95762.03;;;15.41;100.00
18167;BME280;9208;42.688;23.404;2023-05-09T00:10:15;95769.09;;;15.42;100.00
18167;BME280;9208;42.688;23.404;2023-05-09T00:12:40;95751.72;;;15.36;100.00
18167;BME280;9208;42.688;23.404;2023-05-09T00:15:08;95757.75;;;15.40;100.00
18167;BME280;9208;42.688;23.404;2023-05-09T00:17:34;95762.28;;;15.37;100.00
18167;BME280;9208;42.688;23.404;2023-05-09T00:20:07;95756.53;;;15.35;100.00
18167;BME280;9208;42.688;23.404;2023-05-09T00:22:35;95759.25;;;15.41;100.00
18167;BME280;9208;42.688;23.404;2023-05-09T00:25:01;95759.25;;;15.41;100.00
18167;BME280;9208;42.688;23.404;2023-05-09T00:27:26;95749.47;;;15.40;100.00
18167;BME280;9208;42.688;23.404;2023-05-09T00:29:55;95759.78;;;15.34;100.00
18167;BME280;9208;42.688;23.404;2023-05-09T00:32:20;95755.72;;;15.29;100.00
18167;BME280;9208;42.688;23.404;2023-05-09T00:34:45;95752.22;;;15.34;100.00
18167;BME280;9208;42.688;23.404;2023-05-09T00:37:11;95745.16;;;15.33;100.00
18167;BME280;9208;42.688;23.404;2023-05-09T00:39:36;95749.97;;;15.33;100.00
18167;BME280;9208;42.688;23.404;2023-05-09T00:42:02;95753.22;;;15.31;100.00
18167;BME280;9208;42.688;23.404;2023-05-09T00:44:28;95748.94;;;15.25;100.00
18167;BME280;9208;42.688;23.404;2023-05-09T00:46:53;95756.97;;;15.28;100.00
18167;BME280;9208;42.688;23.404;2023-05-09T00:49:19;95746.19;;;15.30;100.00
18167;BME280;9208;42.688;23.404;2023-05-09T00:51:44;95746.41;;;15.27;100.00
18167;BME280;9208;42.688;23.404;2023-05-09T00:54:11;95751.22;;;15.26;100.00
18167;BME280;9208;42.688;23.404;2023-05-09T00:56:37;95748.16;;;15.19;100.00
18167;BME280;9208;42.688;23.404;2023-05-09T00:59:03;95747.16;;;15.11;100.00
18167;BME280;9208;42.688;23.404;2023-05-09T01:01:30;95749.44;;;15.12;100.00
18167;BME280;9208;42.688;23.404;2023-05-09T01:03:56;95753.44;;;15.17;100.00
18167;BME280;9208;42.688;23.404;2023-05-09T01:06:35;95757.97;;;15.14;100.00
18167;BME280;9208;42.688;23.404;2023-05-09T01:09:49;95755.47;;;15.11;100.00
18167;BME280;9208;42.688;23.404;2023-05-09T01:17:57;95750.44;;;15.15;100.00
18167;BME280;9208;42.688;23.404;2023-05-09T01:21:05;95745.41;;;15.19;100.00
18167;BME280;9208;42.688;23.404;2023-05-09T01:32:06;95745.66;;;15.10;100.00
18167;BME280;9208;42.688;23.404;2023-05-09T01:34:33;95737.38;;;15.15;100.00
18167;BME280;9208;42.688;23.404;2023-05-09T01:37:00;95743.41;;;15.19;100.00
18167;BME280;9208;42.688;23.404;2023-05-09T01:39:29;95746.94;;;15.20;100.00
18167;BME280;9208;42.688;23.404;2023-05-09T01:41:59;95747.94;;;15.17;100.00
18167;BME280;9208;42.688;23.404;2023-05-09T01:44:32;95741.41;;;15.14;100.00
18167;BME280;9208;42.688;23.404;2023-05-09T01:46:58;95744.66;;;15.18;100.00
18167;BME280;9208;42.688;23.404;2023-05-09T01:49:27;95748.44;;;15.26;100.00
18167;BME280;9208;42.688;23.404;2023-05-09T01:51:54;95753.97;;;15.21;100.00
18167;BME280;9208;42.688;23.404;2023-05-09T01:54:21;95758.75;;;15.31;100.00
18167;BME280;9208;42.688;23.404;2023-05-09T01:56:48;95750.94;;;15.24;100.00
18167;BME280;9208;42.688;23.404;2023-05-09T01:59:14;95739.38;;;15.04;100.00
18167;BME280;9208;42.688;23.404;2023-05-09T02:01:42;95759.75;;;15.17;100.00
18167;BME280;9208;42.688;23.404;2023-05-09T02:04:09;95755.22;;;15.20;100.00
18167;BME280;9208;42.688;23.404;2023-05-09T02:06:35;95755.22;;;15.20;100.00
18167;BME280;9208;42.688;23.404;2023-05-09T02:09:01;95754.72;;;15.21;100.00
18167;BME280;9208;42.688;23.404;2023-05-09T02:11:27;95753.44;;;15.17;100.00
18167;BME280;9208;42.688;23.404;2023-05-09T02:13:52;95757.19;;;15.14;100.00
18167;BME280;9208;42.688;23.404;2023-05-09T02:16:18;95750.44;;;15.15;100.00
18167;BME280;9208;42.688;23.404;2023-05-09T02:18:43;95754.22;;;15.17;100.00
18167;BME280;9208;42.688;23.404;2023-05-09T02:21:09;95753.44;;;15.17;100.00
18167;BME280;9208;42.688;23.404;2023-05-09T02:23:35;95750.44;;;15.15;100.00
18167;BME280;9208;42.688;23.404;2023-05-09T02:26:01;95742.38;;;15.11;100.00
18167;BME280;9208;42.688;23.404;2023-05-09T02:28:27;95740.63;;;15.14;100.00
18167;BME280;9208;42.688;23.404;2023-05-09T02:30:54;95746.66;;;15.07;100.00
18167;BME280;9208;42.688;23.404;2023-05-09T02:33:21;95750.44;;;15.15;100.00
18167;BME280;9208;42.688;23.404;2023-05-09T02:35:48;95750.94;;;15.08;100.00
18167;BME280;9208;42.688;23.404;2023-05-09T02:38:14;95755.69;;;15.13;100.00
18167;BME280;9208;42.688;23.404;2023-05-09T02:40:42;95757.72;;;15.12;100.00
18167;BME280;9208;42.688;23.404;2023-05-09T02:43:08;95759.22;;;15.13;100.00
18167;BME280;9208;42.688;23.404;2023-05-09T02:45:34;95764.50;;;15.17;100.00
18167;BME280;9208;42.688;23.404;2023-05-09T02:47:59;95763.75;;;15.22;100.00
18167;BME280;9208;42.688;23.404;2023-05-09T02:50:25;95747.66;;;15.09;100.00
18167;BME280;9208;42.688;23.404;2023-05-09T02:52:51;95759.44;;;15.10;100.00
18167;BME280;9208;42.688;23.404;2023-05-09T02:55:16;95761.19;;;14.96;100.00
18167;BME280;9208;42.688;23.404;2023-05-09T02:57:41;95751.91;;;14.94;100.00
18167;BME280;9208;42.688;23.404;2023-05-09T03:00:08;95764.72;;;14.97;100.00
18167;BME280;9208;42.688;23.404;2023-05-09T03:02:35;95754.38;;;14.92;100.00
18167;BME280;9208;42.688;23.404;2023-05-09T03:05:00;95756.94;;;15.01;100.00
18167;BME280;9208;42.688;23.404;2023-05-09T03:07:26;95766.97;;;14.98;100.00
18167;BME280;9208;42.688;23.404;2023-05-09T03:09:51;95766.75;;;15.02;100.00
18167;BME280;9208;42.688;23.404;2023-05-09T03:12:16;95770.25;;;14.97;100.00
18167;BME280;9208;42.688;23.404;2023-05-09T03:14:42;95782.50;;;14.96;100.00
18167;BME280;9208;42.688;23.404;2023-05-09T03:17:07;95778.97;;;14.79;100.00
18167;BME280;9208;42.688;23.404;2023-05-09T03:19:33;95780.19;;;14.78;100.00
18167;BME280;9208;42.688;23.404;2023-05-09T03:21:58;95795.78;;;14.81;100.00
18167;BME280;9208;42.688;23.404;2023-05-09T03:24:25;95796.75;;;14.78;100.00
18167;BME280;9208;42.688;23.404;2023-05-09T03:26:52;95791.97;;;14.73;100.00
18167;BME280;9208;42.688;23.404;2023-05-09T03:29:18;95804.03;;;14.70;100.00
18167;BME280;9208;42.688;23.404;2023-05-09T03:31:44;95809.53;;;14.64;100.00
18167;BME280;9208;42.688;23.404;2023-05-09T03:34:10;95814.78;;;14.68;100.00
18167;BME280;9208;42.688;23.404;2023-05-09T03:36:40;95814.53;;;14.66;100.00
18167;BME280;9208;42.688;23.404;2023-05-09T03:39:06;95790.63;;;14.46;100.00
18167;BME280;9208;42.688;23.404;2023-05-09T03:41:32;95807.72;;;14.56;100.00
18167;BME280;9208;42.688;23.404;2023-05-09T03:44:00;95814.47;;;14.55;100.00
18167;BME280;9208;42.688;23.404;2023-05-09T03:46:26;95810.47;;;14.56;100.00
18167;BME280;9208;42.688;23.404;2023-05-09T03:48:51;95803.66;;;14.46;100.00
18167;BME280;9208;42.688;23.404;2023-05-09T03:51:17;95812.97;;;14.54;100.00
18167;BME280;9208;42.688;23.404;2023-05-09T03:53:44;95809.69;;;14.50;100.00
18167;BME280;9208;42.688;23.404;2023-05-09T03:56:10;95810.22;;;14.54;100.00
18167;BME280;9208;42.688;23.404;2023-05-09T03:58:35;95807.22;;;14.52;100.00
18167;BME280;9208;42.688;23.404;2023-05-09T04:01:01;95813.97;;;14.51;100.00
18167;BME280;9208;42.688;23.404;2023-05-09T04:03:27;95810.72;;;14.52;100.00
18167;BME280;9208;42.688;23.404;2023-05-09T04:05:52;95817.25;;;14.55;100.00
18167;BME280;9208;42.688;23.404;2023-05-09T04:08:18;95811.94;;;14.46;100.00
18167;BME280;9208;42.688;23.404;2023-05-09T04:10:43;95821.72;;;14.47;100.00
18167;BME280;9208;42.688;23.404;2023-05-09T04:13:09;95814.69;;;14.46;100.00
18167;BME280;9208;42.688;23.404;2023-05-09T04:15:35;95821.66;;;14.36;100.00
18167;BME280;9208;42.688;23.404;2023-05-09T04:18:00;95824.91;;;14.34;100.00
18167;BME280;9208;42.688;23.404;2023-05-09T04:20:26;95821.44;;;14.39;100.00
18167;BME280;9208;42.688;23.404;2023-05-09T04:22:52;95826.75;;;14.48;100.00
18167;BME280;9208;42.688;23.404;2023-05-09T04:25:17;95821.03;;;14.63;100.00
18167;BME280;9208;42.688;23.404;2023-05-09T04:27:44;95823.31;;;14.64;100.00
18167;BME280;9208;42.688;23.404;2023-05-09T04:30:10;95825.31;;;14.64;100.00
18167;BME280;9208;42.688;23.404;2023-05-09T04:32:36;95825.88;;;14.73;100.00
18167;BME280;9208;42.688;23.404;2023-05-09T04:35:03;95815.03;;;14.64;100.00
18167;BME280;9208;42.688;23.404;2023-05-09T04:37:28;95821.63;;;14.83;100.00
18167;BME280;9208;42.688;23.404;2023-05-09T04:39:55;95822.41;;;14.89;100.00
18167;BME280;9208;42.688;23.404;2023-05-09T04:42:21;95823.19;;;14.95;100.00
18167;BME280;9208;42.688;23.404;2023-05-09T04:44:47;95826.44;;;14.94;100.00
18167;BME280;9208;42.688;23.404;2023-05-09T04:47:13;95826.47;;;15.05;100.00
18167;BME280;9208;42.688;23.404;2023-05-09T04:49:39;95826.25;;;15.08;100.00
18167;BME280;9208;42.688;23.404;2023-05-09T04:52:04;95833.28;;;15.09;100.00
18167;BME280;9208;42.688;23.404;2023-05-09T04:54:31;95828.47;;;15.10;100.00
18167;BME280;9208;42.688;23.404;2023-05-09T04:56:56;95822.19;;;15.04;100.00
18167;BME280;9208;42.688;23.404;2023-05-09T04:59:22;95821.72;;;15.05;100.00
18167;BME280;9208;42.688;23.404;2023-05-09T05:01:47;95828.75;;;15.12;100.00
18167;BME280;9208;42.688;23.404;2023-05-09T05:04:13;95836.28;;;15.17;100.00
18167;BME280;9208;42.688;23.404;2023-05-09T05:06:38;95829.00;;;15.14;100.00
18167;BME280;9208;42.688;23.404;2023-05-09T05:09:04;95830.00;;;15.05;100.00
18167;BME280;9208;42.688;23.404;2023-05-09T05:11:30;95824.72;;;15.07;100.00
18167;BME280;9208;42.688;23.404;2023-05-09T05:13:55;95824.22;;;15.09;100.00
18167;BME280;9208;42.688;23.404;2023-05-09T05:16:21;95820.25;;;15.21;100.00
18167;BME280;9208;42.688;23.404;2023-05-09T05:18:46;95827.03;;;15.20;100.00
18167;BME280;9208;42.688;23.404;2023-05-09T05:21:12;95824.00;;;15.18;100.00
18167;BME280;9208;42.688;23.404;2023-05-09T05:23:37;95825.00;;;15.20;100.00
18167;BME280;9208;42.688;23.404;2023-05-09T05:26:03;95820.22;;;15.15;100.00
18167;BME280;9208;42.688;23.404;2023-05-09T05:28:28;95828.53;;;15.21;100.00
18167;BME280;9208;42.688;23.404;2023-05-09T05:30:54;95836.06;;;15.26;100.00
18167;BME280;9208;42.688;23.404;2023-05-09T05:33:19;95827.53;;;15.29;100.00
18167;BME280;9208;42.688;23.404;2023-05-09T05:35:45;95832.84;;;15.33;100.00
18167;BME280;9208;42.688;23.404;2023-05-09T05:38:11;95830.63;;;15.37;100.00
18167;BME280;9208;42.688;23.404;2023-05-09T05:40:36;95837.59;;;15.32;100.00
18167;BME280;9208;42.688;23.404;2023-05-09T05:43:02;95836.13;;;15.37;100.00
18167;BME280;9208;42.688;23.404;2023-05-09T05:45:27;95836.59;;;15.30;100.00
18167;BME280;9208;42.688;23.404;2023-05-09T05:47:54;95838.28;;;15.16;100.00
18167;BME280;9208;42.688;23.404;2023-05-09T05:50:20;95833.28;;;15.15;100.00
18167;BME280;9208;42.688;23.404;2023-05-09T05:52:45;95842.59;;;15.23;100.00
18167;BME280;9208;42.688;23.404;2023-05-09T05:55:11;95853.69;;;15.34;100.00
18167;BME280;9208;42.688;23.404;2023-05-09T05:57:36;95844.09;;;15.29;100.00
18167;BME280;9208;42.688;23.404;2023-05-09T06:00:04;95847.63;;;15.30;100.00
18167;BME280;9208;42.688;23.404;2023-05-09T06:02:33;95836.88;;;15.37;100.00
18167;BME280;9208;42.688;23.404;2023-05-09T06:04:58;95841.66;;;15.48;100.00
18167;BME280;9208;42.688;23.404;2023-05-09T06:07:24;95843.44;;;15.51;100.00
18167;BME280;9208;42.688;23.404;2023-05-09T06:09:50;95838.41;;;15.49;100.00
18167;BME280;9208;42.688;23.404;2023-05-09T06:12:15;95840.41;;;15.49;100.00
18167;BME280;9208;42.688;23.404;2023-05-09T06:14:41;95839.41;;;15.46;100.00
18167;BME280;9208;42.688;23.404;2023-05-09T06:17:07;95844.19;;;15.51;100.00
18167;BME280;9208;42.688;23.404;2023-05-09T06:19:32;95842.44;;;15.59;100.00
18167;BME280;9208;42.688;23.404;2023-05-09T06:21:58;95840.44;;;15.60;100.00
18167;BME280;9208;42.688;23.404;2023-05-09T06:24:23;95845.47;;;15.67;100.00
18167;BME280;9208;42.688;23.404;2023-05-09T06:26:49;95841.94;;;15.72;100.00
18167;BME280;9208;42.688;23.404;2023-05-09T06:29:15;95831.66;;;15.78;100.00
18167;BME280;9208;42.688;23.404;2023-05-09T06:31:40;95830.88;;;15.72;100.00
18167;BME280;9208;42.688;23.404;2023-05-09T06:34:06;95841.44;;;15.90;100.00
18167;BME280;9208;42.688;23.404;2023-05-09T06:36:32;95855.78;;;15.99;100.00
18167;BME280;9208;42.688;23.404;2023-05-09T06:38:58;95851.50;;;16.04;100.00
18167;BME280;9208;42.688;23.404;2023-05-09T06:41:23;95843.69;;;16.08;100.00
18167;BME280;9208;42.688;23.404;2023-05-09T06:43:48;95840.94;;;16.08;100.00
18167;BME280;9208;42.688;23.404;2023-05-09T06:46:14;95845.47;;;16.11;100.00
18167;BME280;9208;42.688;23.404;2023-05-09T06:48:39;95843.19;;;16.15;100.00
18167;BME280;9208;42.688;23.404;2023-05-09T06:51:05;95838.66;;;16.17;100.00
18167;BME280;9208;42.688;23.404;2023-05-09T06:53:30;95846.19;;;16.22;100.00
18167;BME280;9208;42.688;23.404;2023-05-09T06:55:56;95844.44;;;16.19;100.00
18167;BME280;9208;42.688;23.404;2023-05-09T06:58:22;95841.94;;;16.16;100.00
18167;BME280;9208;42.688;23.404;2023-05-09T07:00:47;95826.09;;;16.11;100.00
18167;BME280;9208;42.688;23.404;2023-05-09T07:03:13;95842.97;;;16.07;100.00
18167;BME280;9208;42.688;23.404;2023-05-09T07:05:40;95838.66;;;16.06;100.00
18167;BME280;9208;42.688;23.404;2023-05-09T07:08:05;95838.44;;;16.10;100.00
18167;BME280;9208;42.688;23.404;2023-05-09T07:10:31;95833.13;;;16.17;100.00
18167;BME280;9208;42.688;23.404;2023-05-09T07:12:56;95836.63;;;16.23;100.00
18167;BME280;9208;42.688;23.404;2023-05-09T07:15:22;95839.91;;;16.27;100.00
18167;BME280;9208;42.688;23.404;2023-05-09T07:17:47;95835.38;;;16.30;100.00
18167;BME280;9208;42.688;23.404;2023-05-09T07:20:13;95840.41;;;16.37;100.00
18167;BME280;9208;42.688;23.404;2023-05-09T07:22:38;95836.63;;;16.40;100.00
18167;BME280;9208;42.688;23.404;2023-05-09T07:25:07;95837.63;;;16.42;100.00
18167;BME280;9208;42.688;23.404;2023-05-09T07:27:33;95844.19;;;16.45;100.00
18167;BME280;9208;42.688;23.404;2023-05-09T07:29:58;95837.63;;;16.48;100.00
18167;BME280;9208;42.688;23.404;2023-05-09T07:32:23;95834.34;;;16.49;100.00
18167;BME280;9208;42.688;23.404;2023-05-09T07:34:49;95833.09;;;16.50;100.00
18167;BME280;9208;42.688;23.404;2023-05-09T07:37:14;95837.13;;;16.49;100.00
18167;BME280;9208;42.688;23.404;2023-05-09T07:39:40;95842.91;;;16.51;100.00
18167;BME280;9208;42.688;23.404;2023-05-09T07:42:05;95839.91;;;16.49;100.00
18167;BME280;9208;42.688;23.404;2023-05-09T07:44:32;95835.09;;;16.55;100.00
18167;BME280;9208;42.688;23.404;2023-05-09T07:46:57;95837.13;;;16.38;100.00
18167;BME280;9208;42.688;23.404;2023-05-09T07:49:24;95842.91;;;16.35;100.00
18167;BME280;9208;42.688;23.404;2023-05-09T07:51:50;95851.72;;;16.39;100.00
18167;BME280;9208;42.688;23.404;2023-05-09T07:54:15;95838.13;;;16.30;100.00
18167;BME280;9208;42.688;23.404;2023-05-09T07:56:43;95844.44;;;16.36;100.00
18167;BME280;9208;42.688;23.404;2023-05-09T07:59:09;95848.97;;;16.28;100.00
18167;BME280;9208;42.688;23.404;2023-05-09T08:01:36;95844.44;;;16.25;100.00
18167;BME280;9208;42.688;23.404;2023-05-09T08:04:02;95848.44;;;16.35;100.00
18167;BME280;9208;42.688;23.404;2023-05-09T08:06:29;95843.66;;;16.35;100.00
18167;BME280;9208;42.688;23.404;2023-05-09T08:08:54;95840.41;;;16.37;100.00
18167;BME280;9208;42.688;23.404;2023-05-09T08:11:20;95848.22;;;16.33;100.00
18167;BME280;9208;42.688;23.404;2023-05-09T08:13:45;95844.16;;;16.39;100.00
18167;BME280;9208;42.688;23.404;2023-05-09T08:16:15;95848.94;;;16.39;100.00
18167;BME280;9208;42.688;23.404;2023-05-09T08:18:42;95847.94;;;16.36;100.00
18167;BME280;9208;42.688;23.404;2023-05-09T08:21:07;95859.03;;;16.42;100.00
18167;BME280;9208;42.688;23.404;2023-05-09T08:23:32;95845.16;;;16.36;100.00
18167;BME280;9208;42.688;23.404;2023-05-09T08:25:58;95852.22;;;16.43;100.00
18167;BME280;9208;42.688;23.404;2023-05-09T08:28:23;95846.44;;;16.46;100.00
18167;BME280;9208;42.688;23.404;2023-05-09T08:30:50;95847.44;;;16.49;100.00
18167;BME280;9208;42.688;23.404;2023-05-09T08:33:18;95850.22;;;16.43;100.00
18167;BME280;9208;42.688;23.404;2023-05-09T08:35:44;95837.41;;;16.46;100.00
18167;BME280;9208;42.688;23.404;2023-05-09T08:38:09;95842.44;;;16.42;100.00
18167;BME280;9208;42.688;23.404;2023-05-09T08:40:36;95844.44;;;16.41;100.00
18167;BME280;9208;42.688;23.404;2023-05-09T08:43:05;95848.19;;;16.44;100.00
18167;BME280;9208;42.688;23.404;2023-05-09T08:45:34;95851.22;;;16.35;99.51
18167;BME280;9208;42.688;23.404;2023-05-09T08:48:02;95845.16;;;16.36;97.26
18167;BME280;9208;42.688;23.404;2023-05-09T08:50:28;95827.84;;;16.41;96.05
18167;BME280;9208;42.688;23.404;2023-05-09T08:52:53;95834.59;;;16.51;96.25
18167;BME280;9208;42.688;23.404;2023-05-09T08:55:19;95840.88;;;16.63;97.10
18167;BME280;9208;42.688;23.404;2023-05-09T08:57:45;95836.34;;;16.60;95.31
18167;BME280;9208;42.688;23.404;2023-05-09T09:00:11;95839.09;;;16.65;94.87
18167;BME280;9208;42.688;23.404;2023-05-09T09:02:41;95842.34;;;16.75;94.91
18167;BME280;9208;42.688;23.404;2023-05-09T09:05:08;95840.31;;;16.81;93.99
18167;BME280;9208;42.688;23.404;2023-05-09T09:07:35;95843.78;;;16.92;93.89
18167;BME280;9208;42.688;23.404;2023-05-09T09:10:03;95844.03;;;16.89;93.46
18167;BME280;9208;42.688;23.404;2023-05-09T09:12:30;95838.53;;;16.83;95.52
18167;BME280;9208;42.688;23.404;2023-05-09T09:15:02;95836.72;;;16.91;95.27
18167;BME280;9208;42.688;23.404;2023-05-09T09:17:30;95837.00;;;16.82;96.08
18167;BME280;9208;42.688;23.404;2023-05-09T09:19:58;95833.53;;;16.71;96.88
18167;BME280;9208;42.688;23.404;2023-05-09T09:22:31;95833.78;;;16.73;97.46
18167;BME280;9208;42.688;23.404;2023-05-09T09:24:59;95838.34;;;16.65;97.60
18167;BME280;9208;42.688;23.404;2023-05-09T09:27:25;95833.31;;;16.69;98.90
18167;BME280;9208;42.688;23.404;2023-05-09T09:29:51;95842.84;;;16.73;99.21
18167;BME280;9208;42.688;23.404;2023-05-09T09:32:16;95837.25;;;16.90;97.47
18167;BME280;9208;42.688;23.404;2023-05-09T09:34:48;95841.75;;;16.98;95.76
18167;BME280;9208;42.688;23.404;2023-05-09T09:37:22;95848.28;;;17.01;95.52
18167;BME280;9208;42.688;23.404;2023-05-09T09:39:55;95850.47;;;17.13;94.27
18167;BME280;9208;42.688;23.404;2023-05-09T09:42:21;95848.06;;;16.93;94.83
18167;BME280;9208;42.688;23.404;2023-05-09T09:47:33;95830.88;;;17.11;94.04
18167;BME280;9208;42.688;23.404;2023-05-09T09:50:17;95843.91;;;17.22;93.47
18167;BME280;9208;42.688;23.404;2023-05-09T09:55:09;95859.50;;;17.25;89.56
18167;BME280;9208;42.688;23.404;2023-05-09T09:57:37;95840.59;;;17.29;88.57
18167;BME280;9208;42.688;23.404;2023-05-09T10:00:06;95840.56;;;17.40;90.15
18167;BME280;9208;42.688;23.404;2023-05-09T10:02:32;95840.44;;;17.62;89.62
18167;BME280;9208;42.688;23.404;2023-05-09T10:05:07;95837.13;;;17.63;88.32
18167;BME280;9208;42.688;23.404;2023-05-09T10:07:34;95840.41;;;17.97;86.79
18167;BME280;9208;42.688;23.404;2023-05-09T10:10:00;95847.06;;;18.12;83.82
18167;BME280;9208;42.688;23.404;2023-05-09T10:12:32;95834.53;;;18.35;83.01
18167;BME280;9208;42.688;23.404;2023-05-09T10:15:00;95840.06;;;18.35;81.02
18167;BME280;9208;42.688;23.404;2023-05-09T10:17:26;95831.34;;;18.50;81.54
18167;BME280;9208;42.688;23.404;2023-05-09T10:19:55;95845.00;;;18.72;79.80
18167;BME280;9208;42.688;23.404;2023-05-09T10:22:21;95832.88;;;18.75;79.37
18167;BME280;9208;42.688;23.404;2023-05-09T10:25:07;95832.00;;;18.86;78.10
18167;BME280;9208;42.688;23.404;2023-05-09T10:27:37;95831.34;;;18.98;76.97
18167;BME280;9208;42.688;23.404;2023-05-09T10:35:10;95838.09;;;19.21;74.51
18167;BME280;9208;42.688;23.404;2023-05-09T10:37:39;95834.78;;;19.28;74.16
18167;BME280;9208;42.688;23.404;2023-05-09T10:40:05;95839.50;;;19.33;73.74
18167;BME280;9208;42.688;23.404;2023-05-09T10:42:31;95840.47;;;19.36;73.39
18167;BME280;9208;42.688;23.404;2023-05-09T10:44:57;95846.56;;;19.34;71.76
18167;BME280;9208;42.688;23.404;2023-05-09T10:47:26;95835.56;;;19.23;71.90
18167;BME280;9208;42.688;23.404;2023-05-09T10:49:53;95837.47;;;19.34;72.51
18167;BME280;9208;42.688;23.404;2023-05-09T10:52:21;95835.97;;;19.33;72.01
18167;BME280;9208;42.688;23.404;2023-05-09T10:55:05;95835.19;;;19.32;72.88
18167;BME280;9208;42.688;23.404;2023-05-09T10:57:31;95836.28;;;19.29;73.44
18167;BME280;9208;42.688;23.404;2023-05-09T10:59:58;95836.81;;;19.22;72.84
18167;BME280;9208;42.688;23.404;2023-05-09T11:02:24;95838.41;;;19.18;73.86
18167;BME280;9208;42.688;23.404;2023-05-09T11:05:15;95839.56;;;19.28;72.83
18167;BME280;9208;42.688;23.404;2023-05-09T11:07:41;95829.31;;;19.17;73.05
18167;BME280;9208;42.688;23.404;2023-05-09T11:10:15;95825.72;;;19.04;73.31
18167;BME280;9208;42.688;23.404;2023-05-09T11:12:58;95834.25;;;19.06;74.08
18167;BME280;9208;42.688;23.404;2023-05-09T11:15:25;95835.91;;;19.14;73.17
18167;BME280;9208;42.688;23.404;2023-05-09T11:18:05;95837.72;;;19.12;72.86
18167;BME280;9208;42.688;23.404;2023-05-09T11:20:35;95841.03;;;19.10;72.02
18167;BME280;9208;42.688;23.404;2023-05-09T11:23:07;95840.81;;;19.08;72.11
18167;BME280;9208;42.688;23.404;2023-05-09T11:25:34;95837.56;;;19.04;72.39
18167;BME280;9208;42.688;23.404;2023-05-09T11:28:00;95832.66;;;18.92;72.67
18167;BME280;9208;42.688;23.404;2023-05-09T11:30:38;95832.44;;;18.90;73.32
18167;BME280;9208;42.688;23.404;2023-05-09T11:33:20;95838.28;;;18.86;74.13
18167;BME280;9208;42.688;23.404;2023-05-09T11:35:47;95827.69;;;18.85;73.79
18167;BME280;9208;42.688;23.404;2023-05-09T11:38:19;95828.25;;;18.83;74.12
18167;BME280;9208;42.688;23.404;2023-05-09T11:40:45;95824.53;;;18.75;74.77
18167;BME280;9208;42.688;23.404;2023-05-09T11:43:11;95828.81;;;18.76;74.65
18167;BME280;9208;42.688;23.404;2023-05-09T11:45:37;95824.66;;;18.64;74.63
18167;BME280;9208;42.688;23.404;2023-05-09T11:48:07;95810.84;;;18.59;74.24
18167;BME280;9208;42.688;23.404;2023-05-09T11:50:33;95823.41;;;18.65;74.19
18167;BME280;9208;42.688;23.404;2023-05-09T11:52:58;95833.22;;;18.66;73.27
18167;BME280;9208;42.688;23.404;2023-05-09T11:55:24;95830.28;;;18.59;73.89
18167;BME280;9208;42.688;23.404;2023-05-09T11:57:53;95827.56;;;18.53;74.41
18167;BME280;9208;42.688;23.404;2023-05-09T12:00:21;95822.00;;;18.53;74.84
18167;BME280;9208;42.688;23.404;2023-05-09T12:02:47;95824.53;;;18.51;75.15
18167;BME280;9208;42.688;23.404;2023-05-09T12:05:16;95819.78;;;18.46;75.82
18167;BME280;9208;42.688;23.404;2023-05-09T12:07:42;95826.41;;;18.43;75.43
18167;BME280;9208;42.688;23.404;2023-05-09T12:10:12;95826.44;;;18.38;75.30
18167;BME280;9208;42.688;23.404;2023-05-09T12:12:56;95817.88;;;18.35;75.50
18167;BME280;9208;42.688;23.404;2023-05-09T12:15:22;95826.97;;;18.30;75.15
18167;BME280;9208;42.688;23.404;2023-05-09T12:18:00;95831.78;;;18.30;74.76
18167;BME280;9208;42.688;23.404;2023-05-09T12:20:27;95831.31;;;18.26;74.41
18167;BME280;9208;42.688;23.404;2023-05-09T12:22:52;95831.56;;;18.28;75.17
18167;BME280;9208;42.688;23.404;2023-05-09T12:25:18;95823.56;;;18.19;75.80
18167;BME280;9208;42.688;23.404;2023-05-09T12:27:44;95825.59;;;18.18;76.35
18167;BME280;9208;42.688;23.404;2023-05-09T12:30:10;95817.53;;;18.15;75.90
18167;BME280;9208;42.688;23.404;2023-05-09T12:32:40;95825.16;;;18.09;76.11
18167;BME280;9208;42.688;23.404;2023-05-09T12:35:07;95822.66;;;18.11;76.21
18167;BME280;9208;42.688;23.404;2023-05-09T12:37:33;95816.88;;;18.03;76.24
18167;BME280;9208;42.688;23.404;2023-05-09T12:40:08;95820.97;;;17.97;76.58
18167;BME280;9208;42.688;23.404;2023-05-09T12:42:37;95822.03;;;17.94;76.29
18167;BME280;9208;42.688;23.404;2023-05-09T12:45:03;95829.91;;;17.84;76.37
18167;BME280;9208;42.688;23.404;2023-05-09T12:47:31;95825.69;;;17.78;77.20
18167;BME280;9208;42.688;23.404;2023-05-09T12:49:58;95825.44;;;17.76;77.28
18167;BME280;9208;42.688;23.404;2023-05-09T12:52:24;95815.22;;;17.60;78.45
18167;BME280;9208;42.688;23.404;2023-05-09T12:54:52;95807.41;;;17.58;79.40
18167;BME280;9208;42.688;23.404;2023-05-09T12:57:22;95808.50;;;17.50;80.14
18167;BME280;9208;42.688;23.404;2023-05-09T12:59:48;95796.94;;;17.40;81.13
18167;BME280;9208;42.688;23.404;2023-05-09T13:02:14;95812.09;;;17.39;82.00
18167;BME280;9208;42.688;23.404;2023-05-09T13:04:39;95767.34;;;17.19;82.59
18167;BME280;9208;42.688;23.404;2023-05-09T13:07:09;95802.25;;;17.33;82.85
18167;BME280;9208;42.688;23.404;2023-05-09T13:09:35;95815.13;;;17.30;82.97
18167;BME280;9208;42.688;23.404;2023-05-09T13:12:02;95810.16;;;17.23;83.84
18167;BME280;9208;42.688;23.404;2023-05-09T13:14:34;95813.16;;;17.25;84.04
18167;BME280;9208;42.688;23.404;2023-05-09T13:16:59;95811.66;;;17.24;83.71